Boischatel, Canada
Current Conditions -  °F | °C
As of 12:00 AM on Thursday 18 Dec 2014 (Local Time) from CYQB Reporting Station
Light Snow Light Snow  
Wind Chill: 22°   Ceiling: 800
Heat Index: 30°   Visibility: 6mi
Dew Point: 28°   Wind: 9mph
Humidity: 93%   Direction: 70°ENE
Pressure: 29.75"   Gusts: NA
Location:  46.9°N, 71.13°W
Report Text: CYQB 180500Z 07008KT 6SM -SN BKN008 OVC026 M01/M02 A2975 RMK SF6SC2 SLP078
Loading
Personal Weather Stations






























Interactive Weather Map New forecast layout! Learn more

10-Day Weather Forecast

Advertisements
Track Severe Weather on mobile